Montserrat, Missouri
Current Conditions -  °F | °C
As of 2:58 PM on Monday 24 Nov 2014 (Local Time) from KSZL Reporting Station
Overcast Overcast  
Wind Chill: 31°   Ceiling: 3800
Heat Index: 40°   Visibility: 10mi
Dew Point: 25°   Wind: 16mph
Humidity: 55%   Direction: 280°W
Pressure: 29.82"   Gusts: NA
Location:  38.673°N, 93.5632°W
Report Text: KSZL 242058Z 28014KT 10SM BKN038 OVC075 04/M04 A2982 RMK AO2A PK WND 27027/10 SLP106 T00421041 $
Loading
Personal Weather Stations






























Interactive Weather Map New forecast layout! Learn more

10-Day Weather Forecast

Advertisements
Track Severe Weather on mobile